Gibson City, Illinois
Current Conditions -  °F | °C
As of 5:10 PM on Wednesday 22 Oct 2014 (Local Time) from KTIP Reporting Station
Clear Clear  
Wind Chill: 60°   Ceiling: Unl
Heat Index: 60°   Visibility: 10mi
Dew Point: 34°   Wind: 3mph
Humidity: 38%   Direction: 110°ESE
Pressure: 30.26"   Gusts: NA
Location:  40.47°N, 88.38°W
Report Text: KTIP 222210Z AUTO 11003KT 10SM CLR 16/01 A3026 RMK AO2 T01550012
Loading
Personal Weather Stations






























Interactive Weather Map
Tropical Storm Tracking
New forecast layout! Learn more

10-Day Weather Forecast

Advertisements
Track Severe Weather on mobile